Redcliff, Canada
Current Conditions -  °F | °C
As of 1:00 AM on Monday 26 Jan 2015 (Local Time) from CYXH Reporting Station
Clear Clear  
Wind Chill: 32°   Ceiling: Unl
Heat Index: 32°   Visibility: 9mi
Dew Point: 30°   Wind: 2mph
Humidity: 93%   Direction: 200°SSW
Pressure: 29.95"   Gusts: NA
Location:  50.08°N, 110.79°W
Report Text: CYXH 260800Z AUTO 20002KT 9SM CLR M00/M01 A2995 RMK SLP157
Loading
Personal Weather Stations






























Interactive Weather Map New forecast layout! Learn more

10-Day Weather Forecast

Advertisements
Track Severe Weather on mobile